createdAt,value
2018-12-15T00:00:37.291Z,92.80
2018-12-15T00:01:39.193Z,93.66
2018-12-15T00:02:39.248Z,93.66
2018-12-15T00:03:38.738Z,93.66
2018-12-15T00:04:37.809Z,94.04
2018-12-15T00:05:39.038Z,94.60
2018-12-15T00:06:43.140Z,94.13
2018-12-15T00:07:38.476Z,95.45
2018-12-15T00:08:40.216Z,95.26
2018-12-15T00:09:40.146Z,95.07
2018-12-15T00:10:40.700Z,95.26
2018-12-15T00:11:39.138Z,94.70
2018-12-15T00:12:39.364Z,94.51
2018-12-15T00:13:43.284Z,94.32
2018-12-15T00:14:55.193Z,94.60
2018-12-15T00:15:41.729Z,93.75
2018-12-15T00:16:41.360Z,94.51
2018-12-15T00:17:40.191Z,95.45
2018-12-15T00:18:44.219Z,95.83
2018-12-15T00:19:42.155Z,96.02
2018-12-15T00:20:41.742Z,96.59
2018-12-15T00:21:47.713Z,95.64
2018-12-15T00:22:42.204Z,95.64
2018-12-15T00:23:41.441Z,95.64
2018-12-15T00:24:43.193Z,96.02
2018-12-15T00:25:44.185Z,95.64
2018-12-15T00:28:32.274Z,95.83
2018-12-15T00:29:15.791Z,95.55
2018-12-15T00:30:15.853Z,96.40
2018-12-15T00:31:16.323Z,96.78
2018-12-15T00:32:18.338Z,96.40
2018-12-15T00:33:16.556Z,96.40
2018-12-15T00:34:18.314Z,96.50
2018-12-15T00:35:16.807Z,96.02
2018-12-15T00:36:22.779Z,95.74
2018-12-15T00:37:18.760Z,95.83
2018-12-15T00:38:16.241Z,95.83
2018-12-15T00:39:16.590Z,95.93
2018-12-15T00:40:17.849Z,95.83
2018-12-15T00:41:19.790Z,96.02
2018-12-15T00:42:17.787Z,95.07
2018-12-15T00:43:16.372Z,95.26
2018-12-15T00:44:20.283Z,95.45
2018-12-15T00:45:17.737Z,95.74
2018-12-15T00:46:17.027Z,95.64
2018-12-15T00:47:17.131Z,96.02
2018-12-15T00:48:29.525Z,94.98
2018-12-15T00:49:25.278Z,95.45
2018-12-15T00:50:17.597Z,96.02
2018-12-15T00:51:21.809Z,96.21
2018-12-15T00:52:19.796Z,95.74
2018-12-15T00:53:19.165Z,96.59
2018-12-15T00:54:19.796Z,95.55
2018-12-15T00:55:18.365Z,95.45
2018-12-15T00:56:22.279Z,95.45
2018-12-15T00:57:18.744Z,95.07
2018-12-15T00:58:18.849Z,95.36
2018-12-15T00:59:19.053Z,95.74
2018-12-15T01:00:20.265Z,96.21
2018-12-15T01:01:21.293Z,96.31
2018-12-15T01:02:21.288Z,96.50
2018-12-15T01:03:21.284Z,96.78
2018-12-15T01:04:26.791Z,96.02
2018-12-15T01:05:22.435Z,95.64
2018-12-15T01:06:21.803Z,95.45
2018-12-15T01:07:20.328Z,95.45
2018-12-15T01:08:24.299Z,95.64
2018-12-15T01:09:20.628Z,95.07
2018-12-15T01:10:24.795Z,95.17
2018-12-15T01:11:23.769Z,95.36
2018-12-15T01:12:21.167Z,95.17
2018-12-15T01:13:27.784Z,94.23
2018-12-15T01:14:21.485Z,95.45
2018-12-15T01:15:23.289Z,95.36
2018-12-15T01:16:42.734Z,95.45
2018-12-15T01:17:23.731Z,94.51
2018-12-15T01:18:22.080Z,93.94
2018-12-15T01:19:23.796Z,94.60
2018-12-15T01:20:24.757Z,94.70
2018-12-15T01:21:24.328Z,93.75
2018-12-15T01:22:22.790Z,93.75
2018-12-15T01:23:23.749Z,94.32
2018-12-15T01:24:24.786Z,94.04
2018-12-15T01:25:27.256Z,94.32
2018-12-15T01:26:26.234Z,94.60
2018-12-15T01:27:27.280Z,94.32
2018-12-15T01:28:23.742Z,94.42
2018-12-15T01:29:25.787Z,93.94
2018-12-15T01:30:25.787Z,93.18
2018-12-15T01:31:26.153Z,94.04
2018-12-15T01:32:27.236Z,93.94
2018-12-15T01:33:27.360Z,93.75
2018-12-15T01:34:28.312Z,93.47
2018-12-15T01:35:25.895Z,93.94
2018-12-15T01:36:28.825Z,93.47
2018-12-15T01:37:26.289Z,92.52
2018-12-15T01:38:27.295Z,92.61
2018-12-15T01:39:25.616Z,92.90
2018-12-15T01:40:29.834Z,92.80
2018-12-15T01:41:26.074Z,92.90
2018-12-15T01:42:27.261Z,92.90
2018-12-15T01:43:26.463Z,93.56
2018-12-15T01:44:28.284Z,92.99
2018-12-15T01:45:26.903Z,92.80
2018-12-15T01:46:30.767Z,92.99
2018-12-15T01:47:27.253Z,92.90
2018-12-15T01:48:28.423Z,92.80
2018-12-15T01:49:29.287Z,93.75
2018-12-15T01:50:29.335Z,93.85
2018-12-15T01:51:27.985Z,93.37
2018-12-15T01:52:29.147Z,93.66
2018-12-15T01:53:31.347Z,93.94
2018-12-15T01:54:33.334Z,94.70
2018-12-15T01:55:30.280Z,94.42
2018-12-15T01:56:30.801Z,94.42
2018-12-15T01:57:33.604Z,94.13
2018-12-15T01:58:32.829Z,94.51
2018-12-15T01:59:31.284Z,94.51
2018-12-15T02:00:31.258Z,94.70
2018-12-15T02:01:30.276Z,93.37
2018-12-15T02:02:33.279Z,93.28
2018-12-15T02:03:33.780Z,92.90
2018-12-15T02:04:31.814Z,93.56
2018-12-15T02:05:31.281Z,93.66
2018-12-15T02:06:30.498Z,93.56
2018-12-15T02:07:30.755Z,94.42
2018-12-15T02:08:32.807Z,94.60
2018-12-15T02:09:32.830Z,94.23
2018-12-15T02:10:38.846Z,94.51
2018-12-15T02:11:34.810Z,94.60
2018-12-15T02:12:36.246Z,94.51
2018-12-15T02:13:31.591Z,94.79
2018-12-15T02:14:33.785Z,94.89
2018-12-15T02:15:34.833Z,94.51
2018-12-15T02:16:37.804Z,93.94
2018-12-15T02:17:35.729Z,94.04
2018-12-15T02:18:32.454Z,93.75
2018-12-15T02:19:34.280Z,93.66
2018-12-15T02:20:34.779Z,92.71
2018-12-15T02:21:49.733Z,92.05
2018-12-15T02:22:34.830Z,92.71
2018-12-15T02:23:33.415Z,93.37
2018-12-15T02:24:37.300Z,93.37
2018-12-15T02:25:33.783Z,93.85
2018-12-15T02:26:35.781Z,93.47
2018-12-15T02:27:34.118Z,93.37
2018-12-15T02:28:36.582Z,92.99
2018-12-15T02:29:37.248Z,92.71
2018-12-15T02:30:38.290Z,92.80
2018-12-15T02:31:36.737Z,93.47
2018-12-15T02:32:38.806Z,93.56
2018-12-15T02:33:42.806Z,93.94
2018-12-15T02:34:40.208Z,93.66
2018-12-15T02:35:37.292Z,93.94
2018-12-15T02:36:36.754Z,92.33
2018-12-15T02:37:37.781Z,92.05
2018-12-15T02:38:35.998Z,91.20
2018-12-15T02:39:37.211Z,91.77
2018-12-15T02:40:40.297Z,91.86
2018-12-15T02:41:37.661Z,92.90
2018-12-15T02:42:37.764Z,93.66
2018-12-15T02:43:38.802Z,94.04
2018-12-15T02:44:38.145Z,93.56
2018-12-15T02:45:39.299Z,92.80
2018-12-15T02:46:41.290Z,92.71
2018-12-15T02:47:41.502Z,93.09
2018-12-15T02:48:37.869Z,93.18
2018-12-15T02:49:39.811Z,93.66
2018-12-15T02:50:39.834Z,92.99
2018-12-15T02:51:39.268Z,91.96
2018-12-15T02:52:50.379Z,92.43
2018-12-15T02:53:39.717Z,92.52
2018-12-15T02:54:42.786Z,92.33
2018-12-15T02:55:40.019Z,92.05
2018-12-15T02:56:40.803Z,92.05
2018-12-15T02:57:54.781Z,92.33
2018-12-15T02:58:41.280Z,92.05
2018-12-15T02:59:47.330Z,91.77
2018-12-15T03:00:40.831Z,91.58
2018-12-15T03:01:41.829Z,91.48
2018-12-15T03:02:41.794Z,91.67
2018-12-15T03:03:40.247Z,91.86
2018-12-15T03:04:41.478Z,92.90
2018-12-15T03:05:43.235Z,91.58
2018-12-15T03:06:44.336Z,91.67
2018-12-15T03:07:40.928Z,91.86
2018-12-15T03:08:42.798Z,91.39
2018-12-15T03:09:44.781Z,91.29
2018-12-15T03:10:44.233Z,91.10
2018-12-15T03:11:41.723Z,91.96
2018-12-15T03:12:45.801Z,92.61
2018-12-15T03:13:53.001Z,92.52
2018-12-15T03:14:42.331Z,92.80
2018-12-15T03:15:44.284Z,93.18
2018-12-15T03:16:42.740Z,92.99
2018-12-15T03:17:48.848Z,92.90
2018-12-15T03:18:43.154Z,91.20
2018-12-15T03:19:45.314Z,89.97
2018-12-15T03:20:43.534Z,89.50
2018-12-15T03:21:46.282Z,90.63
2018-12-15T03:22:48.776Z,89.87
2018-12-15T03:23:47.779Z,89.50
2018-12-15T03:24:45.781Z,89.97
2018-12-15T03:25:44.354Z,89.97
2018-12-15T03:26:45.599Z,90.72
2018-12-15T03:27:44.685Z,91.29
2018-12-15T03:29:00.779Z,91.20
2018-12-15T03:29:46.783Z,91.86
2018-12-15T03:30:47.081Z,90.63
2018-12-15T03:31:45.458Z,89.78
2018-12-15T03:32:47.365Z,89.59
2018-12-15T03:33:47.245Z,89.87
2018-12-15T03:34:47.807Z,90.63
2018-12-15T03:35:46.162Z,90.63
2018-12-15T03:36:48.239Z,90.63
2018-12-15T03:37:46.618Z,90.16
2018-12-15T03:38:49.559Z,89.50
2018-12-15T03:39:46.954Z,90.34
2018-12-15T03:41:08.046Z,89.87
2018-12-15T03:41:48.796Z,90.72
2018-12-15T03:42:47.379Z,90.16
2018-12-15T03:43:49.292Z,90.34
2018-12-15T03:45:08.759Z,90.06
2018-12-15T03:45:49.817Z,89.87
2018-12-15T03:46:48.161Z,90.06
2018-12-15T03:47:48.422Z,90.16
2018-12-15T03:48:49.547Z,90.34
2018-12-15T03:49:49.780Z,89.40
2018-12-15T03:50:50.823Z,89.69
2018-12-15T03:51:49.050Z,90.44
2018-12-15T03:52:49.250Z,90.44
2018-12-15T03:53:49.497Z,91.10
2018-12-15T03:54:53.278Z,90.72
2018-12-15T03:56:05.289Z,90.25
2018-12-15T03:56:51.790Z,90.06
2018-12-15T03:57:52.752Z,91.10
2018-12-15T03:58:51.786Z,90.63
2018-12-15T03:59:55.309Z,90.72
2018-12-15T04:01:06.284Z,90.72
2018-12-15T04:01:50.937Z,90.44
2018-12-15T04:02:51.943Z,90.91
2018-12-15T04:03:52.781Z,90.63
2018-12-15T04:04:52.277Z,90.16
2018-12-15T04:05:56.324Z,90.34
2018-12-15T04:06:55.298Z,89.78
2018-12-15T04:07:53.781Z,89.97
2018-12-15T04:08:53.015Z,90.72
2018-12-15T04:09:59.779Z,90.16
2018-12-15T04:10:54.316Z,89.69
2018-12-15T04:11:52.490Z,89.87
2018-12-15T04:12:59.292Z,90.06
2018-12-15T04:13:56.778Z,89.97
2018-12-15T04:15:05.745Z,89.40
2018-12-15T04:15:53.271Z,89.87
2018-12-15T04:16:57.320Z,90.06
2018-12-15T04:17:55.288Z,90.34
2018-12-15T04:18:56.254Z,90.72
2018-12-15T04:19:57.782Z,91.10
2018-12-15T04:20:54.005Z,90.63
2018-12-15T04:22:10.758Z,90.82
2018-12-15T04:22:54.336Z,90.91
2018-12-15T04:23:59.246Z,90.63
2018-12-15T04:25:11.264Z,90.34
2018-12-15T04:25:54.874Z,89.87
2018-12-15T04:26:56.857Z,90.82
2018-12-15T04:27:55.213Z,90.44
2018-12-15T04:28:57.281Z,90.34
2018-12-15T04:29:59.288Z,90.34
2018-12-15T04:30:57.326Z,90.06
2018-12-15T04:31:57.432Z,90.34
2018-12-15T04:32:55.853Z,89.87
2018-12-15T04:33:56.060Z,89.78
2018-12-15T04:34:57.362Z,89.69
2018-12-15T04:35:58.321Z,89.97
2018-12-15T04:36:58.287Z,89.59
2018-12-15T04:38:00.739Z,89.59
2018-12-15T04:38:57.105Z,89.97
2018-12-15T04:39:58.789Z,89.97
2018-12-15T04:40:57.445Z,89.87
2018-12-15T04:42:22.283Z,89.59
2018-12-15T04:42:59.282Z,89.31
2018-12-15T04:43:59.784Z,89.40
2018-12-15T04:45:01.779Z,89.31
2018-12-15T04:45:59.161Z,89.21
2018-12-15T04:46:58.309Z,89.50
2018-12-15T04:47:58.474Z,89.50
2018-12-15T04:48:58.710Z,89.50
2018-12-15T04:50:01.819Z,89.31
2018-12-15T04:51:02.781Z,89.21
2018-12-15T04:52:00.798Z,89.12
2018-12-15T04:52:59.434Z,89.31
2018-12-15T04:54:02.094Z,89.12
2018-12-15T04:55:00.136Z,89.97
2018-12-15T04:55:59.972Z,89.87
2018-12-15T04:57:00.185Z,91.01
2018-12-15T04:58:00.402Z,91.10
2018-12-15T04:59:00.488Z,91.20
2018-12-15T05:00:07.288Z,91.10
2018-12-15T05:01:03.823Z,91.86
2018-12-15T05:02:01.008Z,91.10
2018-12-15T05:03:01.219Z,90.72
2018-12-15T05:04:01.415Z,90.63
2018-12-15T05:05:03.320Z,91.39
2018-12-15T05:06:03.327Z,91.29
2018-12-15T05:07:03.776Z,90.82
2018-12-15T05:08:03.781Z,91.20
2018-12-15T05:09:05.781Z,90.72
2018-12-15T05:10:02.347Z,91.29
2018-12-15T05:11:05.315Z,90.91
2018-12-15T05:12:04.283Z,90.63
2018-12-15T05:13:03.007Z,91.39
2018-12-15T05:14:06.804Z,91.20
2018-12-15T05:15:03.419Z,91.20
2018-12-15T05:16:15.355Z,91.67
2018-12-15T05:17:07.292Z,91.67
2018-12-15T05:18:03.863Z,91.86
2018-12-15T05:19:05.796Z,91.39
2018-12-15T05:20:04.126Z,91.10
2018-12-15T05:21:06.275Z,91.67
2018-12-15T05:22:09.272Z,93.09
2018-12-15T05:23:06.287Z,91.96
2018-12-15T05:24:26.868Z,91.48
2018-12-15T05:25:05.071Z,92.43
2018-12-15T05:26:05.269Z,92.43
2018-12-15T05:27:07.470Z,93.18
2018-12-15T05:28:09.289Z,93.09
2018-12-15T05:29:05.859Z,93.85
2018-12-15T05:30:06.055Z,93.18
2018-12-15T05:31:07.779Z,93.75
2018-12-15T05:32:10.237Z,94.13
2018-12-15T05:33:08.280Z,93.28
2018-12-15T05:34:07.739Z,94.70
2018-12-15T05:35:08.789Z,94.70
2018-12-15T05:36:09.776Z,95.07
2018-12-15T05:37:09.829Z,94.51
2018-12-15T05:38:10.277Z,94.51
2018-12-15T05:39:09.738Z,94.60
2018-12-15T05:40:09.789Z,94.42
2018-12-15T05:41:23.838Z,93.85
2018-12-15T05:42:15.813Z,94.51
2018-12-15T05:43:08.399Z,94.89
2018-12-15T05:44:08.601Z,95.36
2018-12-15T05:45:10.775Z,94.89
2018-12-15T05:46:30.989Z,94.32
2018-12-15T05:47:16.815Z,94.13
2018-12-15T05:48:12.234Z,95.36
2018-12-15T05:49:09.585Z,95.07
2018-12-15T05:50:11.298Z,95.26
2018-12-15T05:51:11.785Z,95.45
2018-12-15T05:52:13.781Z,95.55
2018-12-15T05:53:36.267Z,95.74
2018-12-15T05:54:11.592Z,95.26
2018-12-15T05:55:12.278Z,94.60
2018-12-15T05:56:14.783Z,93.37
2018-12-15T05:57:10.982Z,93.47
2018-12-15T05:58:12.785Z,93.37
2018-12-15T05:59:15.304Z,94.42
2018-12-15T06:00:12.506Z,95.26
2018-12-15T06:01:27.321Z,95.26
2018-12-15T06:02:11.846Z,94.70
2018-12-15T06:03:11.984Z,95.64
2018-12-15T06:04:12.752Z,94.89
2018-12-15T06:05:14.287Z,95.17
2018-12-15T06:06:13.493Z,95.26
2018-12-15T06:07:14.285Z,94.51
2018-12-15T06:08:12.864Z,94.51
2018-12-15T06:09:14.776Z,94.32
2018-12-15T06:10:16.835Z,94.60
2018-12-15T06:11:15.359Z,94.60
2018-12-15T06:12:13.632Z,94.42
2018-12-15T06:14:46.403Z,92.80
2018-12-15T06:15:45.744Z,92.33
2018-12-15T06:16:47.931Z,93.47
2018-12-15T06:17:47.879Z,94.42
2018-12-15T06:18:46.294Z,94.32
2018-12-15T06:19:48.363Z,95.36
2018-12-15T06:20:46.684Z,95.07
2018-12-15T06:21:48.356Z,95.07
2018-12-15T06:22:47.030Z,95.74
2018-12-15T06:23:47.123Z,96.21
2018-12-15T06:24:48.910Z,96.69
2018-12-15T06:25:48.512Z,96.40
2018-12-15T06:26:48.638Z,96.59
2018-12-15T06:27:47.732Z,96.78
2018-12-15T06:28:49.980Z,96.59
2018-12-15T06:29:49.853Z,96.59
2018-12-15T06:30:48.303Z,96.50
2018-12-15T06:31:48.532Z,95.74
2018-12-15T06:32:48.720Z,95.74
2018-12-15T06:33:50.852Z,95.26
2018-12-15T06:34:52.852Z,95.26
2018-12-15T06:35:49.220Z,95.45
2018-12-15T06:36:51.352Z,95.26
2018-12-15T06:37:49.599Z,94.60
2018-12-15T06:38:51.481Z,94.60
2018-12-15T06:39:51.854Z,94.32
2018-12-15T06:40:53.936Z,94.70
2018-12-15T06:41:52.952Z,93.32
2018-12-15T06:42:51.934Z,93.18
2018-12-15T06:43:50.399Z,92.80
2018-12-15T06:44:54.460Z,92.99
2018-12-15T06:45:52.459Z,92.99
2018-12-15T06:46:50.791Z,92.10
2018-12-15T06:47:51.092Z,92.19
2018-12-15T06:48:53.983Z,92.47
2018-12-15T06:49:52.852Z,92.94
2018-12-15T06:50:53.352Z,93.18
2018-12-15T06:51:53.432Z,93.04
2018-12-15T06:52:53.370Z,92.38
2018-12-15T06:53:53.047Z,92.33
2018-12-15T06:54:52.141Z,92.90
2018-12-15T06:55:55.862Z,92.80
2018-12-15T06:56:56.416Z,92.99
2018-12-15T06:57:52.619Z,92.66
2018-12-15T06:58:52.752Z,92.38
2018-12-15T06:59:53.852Z,92.38
2018-12-15T07:00:54.960Z,92.85
2018-12-15T07:01:53.129Z,92.76
2018-12-15T07:02:54.856Z,92.94
2018-12-15T07:03:59.369Z,91.43
2018-12-15T07:04:55.350Z,91.15
2018-12-15T07:05:55.398Z,91.24
2018-12-15T07:06:54.031Z,90.58
2018-12-15T07:07:54.072Z,90.86
2018-12-15T07:08:54.245Z,90.58
2018-12-15T07:10:01.858Z,90.68
2018-12-15T07:10:54.482Z,89.92
2018-12-15T07:11:55.681Z,89.83
2018-12-15T07:12:56.346Z,89.73
2018-12-15T07:13:58.863Z,89.92
2018-12-15T07:14:56.079Z,90.58
2018-12-15T07:15:58.959Z,90.30
2018-12-15T07:16:59.458Z,90.77
2018-12-15T07:18:01.588Z,90.49
2018-12-15T07:19:01.810Z,90.86
2018-12-15T07:19:57.383Z,91.24
2018-12-15T07:20:56.165Z,91.15
2018-12-15T07:21:59.948Z,92.00
2018-12-15T07:22:58.366Z,90.68
2018-12-15T07:23:58.358Z,90.11
2018-12-15T07:24:58.413Z,89.83
2018-12-15T07:25:56.944Z,88.74
2018-12-15T07:26:58.890Z,88.83
2018-12-15T07:27:59.926Z,89.12
2018-12-15T07:28:59.430Z,89.50
2018-12-15T07:29:57.521Z,89.40
2018-12-15T07:30:59.353Z,88.64
2018-12-15T07:31:59.385Z,88.64
2018-12-15T07:33:01.850Z,88.55
2018-12-15T07:33:59.852Z,88.26
2018-12-15T07:35:01.061Z,89.02
2018-12-15T07:35:58.612Z,88.74
2018-12-15T07:36:58.726Z,89.31
2018-12-15T07:37:58.807Z,88.55
2018-12-15T07:38:59.012Z,87.79
2018-12-15T07:39:59.270Z,88.17
2018-12-15T07:40:59.472Z,88.36
2018-12-15T07:41:59.621Z,88.55
2018-12-15T07:42:59.707Z,88.36
2018-12-15T07:43:59.876Z,87.79
2018-12-15T07:45:03.880Z,88.12
2018-12-15T07:46:06.858Z,87.88
2018-12-15T07:47:01.923Z,88.07
2018-12-15T07:48:04.374Z,89.02
2018-12-15T07:49:03.391Z,89.12
2018-12-15T07:50:00.839Z,89.50
2018-12-15T07:51:02.863Z,89.78
2018-12-15T07:52:04.850Z,89.50
2018-12-15T07:53:02.329Z,89.50
2018-12-15T07:54:01.501Z,89.78
2018-12-15T07:55:01.582Z,89.59
2018-12-15T07:56:03.374Z,89.02
2018-12-15T07:57:03.863Z,88.83
2018-12-15T07:58:05.870Z,88.83
2018-12-15T07:59:03.865Z,89.12
2018-12-15T08:00:02.324Z,88.07
2018-12-15T08:01:03.605Z,88.17
2018-12-15T08:02:09.358Z,87.70
2018-12-15T08:03:03.850Z,88.26
2018-12-15T08:04:04.857Z,87.88
2018-12-15T08:05:06.898Z,88.26
2018-12-15T08:06:03.269Z,88.74
2018-12-15T08:07:04.482Z,88.22
2018-12-15T08:08:05.355Z,88.93
2018-12-15T08:09:03.776Z,88.31
2018-12-15T08:10:07.464Z,88.03
2018-12-15T08:11:05.880Z,88.12
2018-12-15T08:12:04.248Z,88.41
2018-12-15T08:13:04.331Z,88.98
2018-12-15T08:14:08.355Z,89.21
2018-12-15T08:15:10.686Z,89.83
2018-12-15T08:16:04.970Z,89.87
2018-12-15T08:17:05.113Z,89.02
2018-12-15T08:18:10.862Z,88.07
2018-12-15T08:19:08.413Z,87.70
2018-12-15T08:20:07.349Z,87.79
2018-12-15T08:21:07.350Z,87.65
2018-12-15T08:22:09.958Z,87.98
2018-12-15T08:23:06.103Z,88.83
2018-12-15T08:24:06.180Z,88.74
2018-12-15T08:25:06.370Z,88.74
2018-12-15T08:26:07.270Z,87.88
2018-12-15T08:27:08.368Z,87.32
2018-12-15T08:28:09.100Z,86.85
2018-12-15T08:29:07.060Z,86.94
2018-12-15T08:30:07.318Z,86.94
2018-12-15T08:31:08.481Z,87.88
2018-12-15T08:32:11.407Z,87.51
2018-12-15T08:33:07.742Z,88.07
2018-12-15T08:34:07.894Z,87.70
2018-12-15T08:35:08.091Z,88.07
2018-12-15T08:36:08.419Z,87.60
2018-12-15T08:37:08.574Z,87.79
2018-12-15T08:38:10.410Z,87.98
2018-12-15T08:39:08.941Z,87.51
2018-12-15T08:40:10.864Z,87.13
2018-12-15T08:41:10.895Z,85.99
2018-12-15T08:42:09.512Z,86.94
2018-12-15T08:43:11.353Z,87.04
2018-12-15T08:44:09.797Z,87.51
2018-12-15T08:45:11.854Z,87.88
2018-12-15T08:46:25.867Z,87.41
2018-12-15T08:47:10.367Z,87.04
2018-12-15T08:48:12.375Z,88.26
2018-12-15T08:49:12.357Z,87.51
2018-12-15T08:50:10.681Z,87.98
2018-12-15T08:51:14.852Z,87.70
2018-12-15T08:52:11.056Z,87.70
2018-12-15T08:53:11.254Z,87.23
2018-12-15T08:54:12.490Z,87.13
2018-12-15T08:55:11.569Z,87.04
2018-12-15T08:56:13.354Z,87.60
2018-12-15T08:57:13.023Z,87.04
2018-12-15T08:58:12.119Z,86.37
2018-12-15T08:59:13.273Z,87.04
2018-12-15T09:00:13.862Z,86.47
2018-12-15T09:01:13.605Z,86.66
2018-12-15T09:02:12.761Z,87.13
2018-12-15T09:03:14.903Z,87.70
2018-12-15T09:04:14.860Z,87.79
2018-12-15T09:05:14.878Z,87.04
2018-12-15T09:06:13.467Z,87.70
2018-12-15T09:07:14.688Z,88.07
2018-12-15T09:08:17.350Z,87.70
2018-12-15T09:09:13.975Z,87.51
2018-12-15T09:10:14.043Z,87.70
2018-12-15T09:11:14.238Z,87.93
2018-12-15T09:12:15.492Z,87.55
2018-12-15T09:13:14.731Z,88.03
2018-12-15T09:14:17.356Z,88.03
2018-12-15T09:15:16.853Z,88.12
2018-12-15T09:16:16.857Z,88.07
2018-12-15T09:17:15.293Z,89.07
2018-12-15T09:18:16.584Z,88.83
2018-12-15T09:19:17.406Z,87.98
2018-12-15T09:20:17.466Z,87.13
2018-12-15T09:21:16.060Z,87.13
2018-12-15T09:22:16.244Z,86.47
2018-12-15T09:23:16.471Z,85.80
2018-12-15T09:24:18.388Z,87.13
2018-12-15T09:25:16.830Z,85.90
2018-12-15T09:26:18.889Z,86.47
2018-12-15T09:27:17.232Z,85.24
2018-12-15T09:28:17.389Z,85.42
2018-12-15T09:29:17.573Z,85.71
2018-12-15T09:30:20.517Z,85.05
2018-12-15T09:31:17.815Z,85.42
2018-12-15T09:32:19.842Z,85.24
2018-12-15T09:33:18.223Z,85.33
2018-12-15T09:34:18.433Z,86.28
2018-12-15T09:35:18.639Z,85.33
2018-12-15T09:36:18.831Z,86.66
2018-12-15T09:37:20.895Z,84.95
2018-12-15T09:38:19.179Z,85.14
2018-12-15T09:39:19.304Z,85.80
2018-12-15T09:40:21.349Z,86.47
2018-12-15T09:41:19.693Z,86.47
2018-12-15T09:42:20.959Z,86.75
2018-12-15T09:43:23.912Z,85.42
2018-12-15T09:44:21.920Z,85.05
2018-12-15T09:45:22.345Z,85.52
2018-12-15T09:46:24.348Z,84.77
2018-12-15T09:47:20.759Z,84.29
2018-12-15T09:48:20.986Z,83.91
2018-12-15T09:49:21.165Z,84.29
2018-12-15T09:50:23.376Z,83.82
2018-12-15T09:51:23.363Z,84.01
2018-12-15T09:52:21.808Z,84.67
2018-12-15T09:53:24.894Z,84.29
2018-12-15T09:54:23.251Z,84.29
2018-12-15T09:55:22.327Z,84.95
2018-12-15T09:56:23.576Z,85.42
2018-12-15T09:57:22.657Z,85.05
2018-12-15T09:58:24.358Z,85.14
2018-12-15T09:59:24.873Z,84.77
2018-12-15T10:00:23.179Z,84.67
2018-12-15T10:01:25.421Z,84.48
2018-12-15T10:02:23.654Z,84.20
2018-12-15T10:03:25.386Z,84.58
2018-12-15T10:04:23.977Z,84.86
2018-12-15T10:05:25.853Z,84.10
2018-12-15T10:06:24.379Z,83.91
2018-12-15T10:07:26.351Z,83.63
2018-12-15T10:08:28.400Z,84.10
2018-12-15T10:09:26.355Z,84.10
2018-12-15T10:10:25.050Z,84.39
2018-12-15T10:11:25.312Z,84.67
2018-12-15T10:12:32.357Z,84.95
2018-12-15T10:13:25.563Z,84.77
2018-12-15T10:14:25.771Z,85.33
2018-12-15T10:15:26.019Z,84.39
2018-12-15T10:16:26.198Z,84.20
2018-12-15T10:17:27.848Z,83.53
2018-12-15T10:18:26.488Z,84.20
2018-12-15T10:19:26.630Z,83.91
2018-12-15T10:20:30.414Z,84.29
2018-12-15T10:21:26.989Z,84.95
2018-12-15T10:22:27.239Z,84.20
2018-12-15T10:23:27.358Z,84.39
2018-12-15T10:24:29.540Z,85.14
2018-12-15T10:25:29.373Z,85.14
2018-12-15T10:26:27.759Z,84.58
2018-12-15T10:27:34.923Z,84.39
2018-12-15T10:28:28.137Z,85.33
2018-12-15T10:29:28.207Z,84.95
2018-12-15T10:30:30.356Z,84.67
2018-12-15T10:31:30.348Z,85.14
2018-12-15T10:32:29.298Z,84.10
2018-12-15T10:33:40.958Z,83.91
2018-12-15T10:34:30.973Z,84.67
2018-12-15T10:35:29.314Z,84.39
2018-12-15T10:36:29.536Z,85.14
2018-12-15T10:37:31.353Z,85.14
2018-12-15T10:38:29.869Z,84.29
2018-12-15T10:39:31.907Z,84.29
2018-12-15T10:40:31.894Z,85.42
2018-12-15T10:41:32.352Z,86.18
2018-12-15T10:42:32.424Z,85.05
2018-12-15T10:43:32.367Z,86.66
2018-12-15T10:44:46.864Z,85.52
2018-12-15T10:45:34.763Z,84.86
2018-12-15T10:46:32.850Z,84.58
2018-12-15T10:47:33.483Z,85.42
2018-12-15T10:48:31.563Z,85.33
2018-12-15T10:49:31.759Z,84.67
2018-12-15T10:50:33.908Z,85.14
2018-12-15T10:51:32.179Z,85.52
2018-12-15T10:52:32.263Z,85.05
2018-12-15T10:53:34.349Z,85.52
2018-12-15T10:54:32.673Z,85.90
2018-12-15T10:55:33.921Z,85.24
2018-12-15T10:56:33.073Z,85.24
2018-12-15T10:57:33.206Z,85.33
2018-12-15T10:58:33.315Z,84.58
2018-12-15T10:59:35.349Z,84.01
2018-12-15T11:00:33.620Z,84.10
2018-12-15T11:01:33.654Z,83.44
2018-12-15T11:02:35.350Z,83.34
2018-12-15T11:03:35.851Z,83.25
2018-12-15T11:04:35.966Z,83.25
2018-12-15T11:05:35.987Z,83.15
2018-12-15T11:06:38.359Z,82.78
2018-12-15T11:07:40.364Z,82.12
2018-12-15T11:08:34.983Z,82.50
2018-12-15T11:09:36.903Z,82.50
2018-12-15T11:10:38.851Z,82.78
2018-12-15T11:11:37.400Z,83.34
2018-12-15T11:12:41.356Z,82.21
2018-12-15T11:13:35.683Z,81.74
2018-12-15T11:14:37.408Z,82.21
2018-12-15T11:15:35.917Z,82.31
2018-12-15T11:16:37.864Z,82.21
2018-12-15T11:17:41.875Z,82.40
2018-12-15T11:18:38.440Z,82.59
2018-12-15T11:19:37.263Z,81.93
2018-12-15T11:20:38.460Z,81.74
2018-12-15T11:21:38.912Z,81.55
2018-12-15T11:22:37.811Z,81.83
2018-12-15T11:23:37.315Z,82.40
2018-12-15T11:24:37.541Z,80.98
2018-12-15T11:25:39.486Z,81.36
2018-12-15T11:26:39.316Z,81.64
2018-12-15T11:27:37.896Z,80.32
2018-12-15T11:28:45.844Z,80.41
2018-12-15T11:29:41.849Z,80.04
2018-12-15T11:30:38.420Z,80.22
2018-12-15T11:31:38.614Z,80.98
2018-12-15T11:32:39.897Z,81.26
2018-12-15T11:33:39.067Z,80.98
2018-12-15T11:34:40.201Z,80.22
2018-12-15T11:35:42.851Z,80.88
2018-12-15T11:36:39.437Z,80.51
2018-12-15T11:37:41.346Z,80.51
2018-12-15T11:38:42.625Z,79.94
2018-12-15T11:39:41.858Z,79.37
2018-12-15T11:40:43.909Z,79.37
2018-12-15T11:41:41.344Z,80.69
2018-12-15T11:42:40.553Z,81.17
2018-12-15T11:43:42.375Z,81.64
2018-12-15T11:44:44.848Z,81.83
2018-12-15T11:45:41.180Z,81.55
2018-12-15T11:46:42.380Z,80.79
2018-12-15T11:47:41.624Z,81.55
2018-12-15T11:48:43.351Z,80.98
2018-12-15T11:49:43.757Z,81.55
2018-12-15T11:50:42.127Z,81.93
2018-12-15T11:51:45.881Z,81.93
2018-12-15T11:52:42.549Z,81.93
2018-12-15T11:53:46.346Z,82.21
2018-12-15T11:54:42.979Z,82.78
2018-12-15T11:55:44.570Z,82.50
2018-12-15T11:56:46.852Z,82.68
2018-12-15T11:57:45.455Z,82.87
2018-12-15T11:58:45.357Z,82.21
2018-12-15T11:59:45.780Z,82.12
2018-12-15T12:00:43.983Z,82.31
2018-12-15T12:01:53.157Z,82.40
2018-12-15T12:02:44.337Z,82.59
2018-12-15T12:03:44.488Z,82.21
2018-12-15T12:04:46.485Z,82.87
2018-12-15T12:05:46.349Z,82.21
2018-12-15T12:06:44.936Z,81.74
2018-12-15T12:07:45.084Z,81.36
2018-12-15T12:08:45.238Z,81.55
2018-12-15T12:09:51.889Z,81.74
2018-12-15T12:10:46.301Z,81.55
2018-12-15T12:11:45.883Z,82.02
2018-12-15T12:12:45.966Z,81.74
2018-12-15T12:13:47.211Z,81.55
2018-12-15T12:14:47.348Z,82.12
2018-12-15T12:15:46.434Z,81.74
2018-12-15T12:16:48.373Z,82.12
2018-12-15T12:17:47.918Z,82.50
2018-12-15T12:18:47.063Z,81.83
2018-12-15T12:19:50.849Z,81.64
2018-12-15T12:20:47.307Z,81.36
2018-12-15T12:21:47.537Z,81.55
2018-12-15T12:22:48.719Z,81.83
2018-12-15T12:23:49.883Z,82.40
2018-12-15T12:24:48.048Z,81.55
2018-12-15T12:25:49.853Z,82.21
2018-12-15T12:27:00.591Z,82.50
2018-12-15T12:27:48.724Z,82.40
2018-12-15T12:28:50.351Z,81.93
2018-12-15T12:29:48.915Z,82.31
2018-12-15T12:30:52.848Z,81.64
2018-12-15T12:31:50.953Z,81.55
2018-12-15T12:32:51.350Z,81.83
2018-12-15T12:33:49.572Z,81.55
2018-12-15T12:34:49.740Z,80.88
2018-12-15T12:35:51.857Z,81.64
2018-12-15T12:36:50.051Z,81.64
2018-12-15T12:37:53.847Z,82.31
2018-12-15T12:38:50.414Z,83.25
2018-12-15T12:39:52.344Z,82.40
2018-12-15T12:40:52.440Z,82.59
2018-12-15T12:41:50.945Z,82.50
2018-12-15T12:42:54.853Z,82.12
2018-12-15T12:43:54.853Z,81.93
2018-12-15T12:44:51.424Z,81.93
2018-12-15T12:45:51.636Z,82.21
2018-12-15T12:46:53.348Z,82.21
2018-12-15T12:47:55.847Z,83.06
2018-12-15T12:49:13.171Z,83.34
2018-12-15T12:49:56.882Z,83.34
2018-12-15T12:50:53.613Z,83.53
2018-12-15T12:51:54.351Z,84.39
2018-12-15T12:52:54.354Z,83.34
2018-12-15T12:53:52.933Z,82.59
2018-12-15T12:54:53.132Z,82.40
2018-12-15T12:55:54.848Z,82.12
2018-12-15T12:56:53.562Z,82.02
2018-12-15T12:57:55.410Z,81.93